sensor_id;sensor_type;location;lat;lon;timestamp;temperature;humidity
41447;DHT22;27185;52.040;4.490;2022-08-21T00:00:26;18.60;98.40
41447;DHT22;27185;52.040;4.490;2022-08-21T00:03:12;18.60;98.50
41447;DHT22;27185;52.040;4.490;2022-08-21T00:05:58;18.60;98.50
41447;DHT22;27185;52.040;4.490;2022-08-21T00:08:43;18.60;98.40
41447;DHT22;27185;52.040;4.490;2022-08-21T00:11:29;18.60;98.40
41447;DHT22;27185;52.040;4.490;2022-08-21T00:14:15;18.60;98.40
41447;DHT22;27185;52.040;4.490;2022-08-21T00:17:01;18.60;98.40
41447;DHT22;27185;52.040;4.490;2022-08-21T00:19:46;18.60;98.40
41447;DHT22;27185;52.040;4.490;2022-08-21T00:22:32;18.60;98.40
41447;DHT22;27185;52.040;4.490;2022-08-21T00:25:18;18.50;98.50
41447;DHT22;27185;52.040;4.490;2022-08-21T00:28:04;18.50;98.60
41447;DHT22;27185;52.040;4.490;2022-08-21T00:30:51;18.50;98.60
41447;DHT22;27185;52.040;4.490;2022-08-21T00:33:37;18.50;98.60
41447;DHT22;27185;52.040;4.490;2022-08-21T00:36:22;18.50;98.60
41447;DHT22;27185;52.040;4.490;2022-08-21T00:39:09;18.40;98.60
41447;DHT22;27185;52.040;4.490;2022-08-21T00:41:54;18.40;98.70
41447;DHT22;27185;52.040;4.490;2022-08-21T00:44:46;18.40;98.80
41447;DHT22;27185;52.040;4.490;2022-08-21T00:47:33;18.30;98.90
41447;DHT22;27185;52.040;4.490;2022-08-21T00:50:19;18.30;98.80
41447;DHT22;27185;52.040;4.490;2022-08-21T00:53:06;18.30;98.90
41447;DHT22;27185;52.040;4.490;2022-08-21T00:55:53;18.30;99.10
41447;DHT22;27185;52.040;4.490;2022-08-21T00:58:41;18.30;99.10
41447;DHT22;27185;52.040;4.490;2022-08-21T01:01:28;18.20;99.20
41447;DHT22;27185;52.040;4.490;2022-08-21T01:04:14;18.20;99.30
41447;DHT22;27185;52.040;4.490;2022-08-21T01:07:01;18.20;99.40
41447;DHT22;27185;52.040;4.490;2022-08-21T01:09:48;18.20;99.40
41447;DHT22;27185;52.040;4.490;2022-08-21T01:12:34;18.20;99.40
41447;DHT22;27185;52.040;4.490;2022-08-21T01:15:22;18.20;99.40
41447;DHT22;27185;52.040;4.490;2022-08-21T01:18:12;18.20;99.40
41447;DHT22;27185;52.040;4.490;2022-08-21T01:21:08;18.20;99.40
41447;DHT22;27185;52.040;4.490;2022-08-21T01:23:56;18.20;99.90
41447;DHT22;27185;52.040;4.490;2022-08-21T01:26:42;18.20;99.50
41447;DHT22;27185;52.040;4.490;2022-08-21T01:29:36;18.20;99.40
41447;DHT22;27185;52.040;4.490;2022-08-21T01:32:24;18.20;99.40
41447;DHT22;27185;52.040;4.490;2022-08-21T01:35:11;18.20;99.40
41447;DHT22;27185;52.040;4.490;2022-08-21T01:37:57;18.10;99.30
41447;DHT22;27185;52.040;4.490;2022-08-21T01:40:42;18.10;99.40
41447;DHT22;27185;52.040;4.490;2022-08-21T01:43:28;18.10;99.40
41447;DHT22;27185;52.040;4.490;2022-08-21T01:46:14;18.10;99.40
41447;DHT22;27185;52.040;4.490;2022-08-21T01:48:59;18.00;99.30
41447;DHT22;27185;52.040;4.490;2022-08-21T01:51:45;18.00;99.30
41447;DHT22;27185;52.040;4.490;2022-08-21T01:54:31;18.00;99.40
41447;DHT22;27185;52.040;4.490;2022-08-21T01:57:17;17.90;99.40
41447;DHT22;27185;52.040;4.490;2022-08-21T02:00:08;17.90;99.40
41447;DHT22;27185;52.040;4.490;2022-08-21T02:02:55;17.90;99.50
41447;DHT22;27185;52.040;4.490;2022-08-21T02:05:41;17.90;99.30
41447;DHT22;27185;52.040;4.490;2022-08-21T02:08:28;17.80;99.30
41447;DHT22;27185;52.040;4.490;2022-08-21T02:11:14;17.80;99.30
41447;DHT22;27185;52.040;4.490;2022-08-21T02:13:59;17.70;99.30
41447;DHT22;27185;52.040;4.490;2022-08-21T02:16:46;17.70;99.30
41447;DHT22;27185;52.040;4.490;2022-08-21T02:19:31;17.60;99.40
41447;DHT22;27185;52.040;4.490;2022-08-21T02:22:17;17.60;99.40
41447;DHT22;27185;52.040;4.490;2022-08-21T02:25:03;17.60;99.50
41447;DHT22;27185;52.040;4.490;2022-08-21T02:27:49;17.50;99.60
41447;DHT22;27185;52.040;4.490;2022-08-21T02:30:38;17.50;99.60
41447;DHT22;27185;52.040;4.490;2022-08-21T02:33:25;17.50;99.70
41447;DHT22;27185;52.040;4.490;2022-08-21T02:36:11;17.40;99.70
41447;DHT22;27185;52.040;4.490;2022-08-21T02:38:57;17.40;99.70
41447;DHT22;27185;52.040;4.490;2022-08-21T02:41:42;17.40;99.70
41447;DHT22;27185;52.040;4.490;2022-08-21T02:44:28;17.40;99.70
41447;DHT22;27185;52.040;4.490;2022-08-21T02:47:14;17.40;99.80
41447;DHT22;27185;52.040;4.490;2022-08-21T02:50:00;17.30;99.80
41447;DHT22;27185;52.040;4.490;2022-08-21T02:52:45;17.30;99.80
41447;DHT22;27185;52.040;4.490;2022-08-21T02:55:32;17.20;99.80
41447;DHT22;27185;52.040;4.490;2022-08-21T02:58:27;17.20;99.90
41447;DHT22;27185;52.040;4.490;2022-08-21T03:01:14;17.20;99.90
41447;DHT22;27185;52.040;4.490;2022-08-21T03:03:59;17.10;99.90
41447;DHT22;27185;52.040;4.490;2022-08-21T03:06:45;17.10;99.90
41447;DHT22;27185;52.040;4.490;2022-08-21T03:09:30;17.10;99.90
41447;DHT22;27185;52.040;4.490;2022-08-21T03:12:16;17.00;99.90
41447;DHT22;27185;52.040;4.490;2022-08-21T03:15:05;17.00;99.90
41447;DHT22;27185;52.040;4.490;2022-08-21T03:17:52;17.00;99.90
41447;DHT22;27185;52.040;4.490;2022-08-21T03:20:40;17.00;99.90
41447;DHT22;27185;52.040;4.490;2022-08-21T03:23:25;17.00;99.90
41447;DHT22;27185;52.040;4.490;2022-08-21T03:26:11;17.00;99.90
41447;DHT22;27185;52.040;4.490;2022-08-21T03:28:57;17.00;99.90
41447;DHT22;27185;52.040;4.490;2022-08-21T03:31:43;17.00;99.90
41447;DHT22;27185;52.040;4.490;2022-08-21T03:34:28;17.00;99.90
41447;DHT22;27185;52.040;4.490;2022-08-21T03:37:15;16.90;99.90
41447;DHT22;27185;52.040;4.490;2022-08-21T03:40:00;16.90;99.90
41447;DHT22;27185;52.040;4.490;2022-08-21T03:42:46;16.90;99.90
41447;DHT22;27185;52.040;4.490;2022-08-21T03:45:32;16.90;99.90
41447;DHT22;27185;52.040;4.490;2022-08-21T03:48:18;16.90;99.90
41447;DHT22;27185;52.040;4.490;2022-08-21T03:51:04;16.90;99.90
41447;DHT22;27185;52.040;4.490;2022-08-21T03:53:51;16.90;99.90
41447;DHT22;27185;52.040;4.490;2022-08-21T03:56:37;16.90;99.90
41447;DHT22;27185;52.040;4.490;2022-08-21T03:59:22;16.90;99.90
41447;DHT22;27185;52.040;4.490;2022-08-21T04:02:09;16.90;99.90
41447;DHT22;27185;52.040;4.490;2022-08-21T04:04:54;16.80;99.90
41447;DHT22;27185;52.040;4.490;2022-08-21T04:07:40;16.80;99.90
41447;DHT22;27185;52.040;4.490;2022-08-21T04:10:27;16.80;99.90
41447;DHT22;27185;52.040;4.490;2022-08-21T04:13:13;16.70;99.90
41447;DHT22;27185;52.040;4.490;2022-08-21T04:16:00;16.70;99.90
41447;DHT22;27185;52.040;4.490;2022-08-21T04:18:45;16.70;99.90
41447;DHT22;27185;52.040;4.490;2022-08-21T04:21:31;16.70;99.90
41447;DHT22;27185;52.040;4.490;2022-08-21T04:24:17;16.70;99.90
41447;DHT22;27185;52.040;4.490;2022-08-21T04:27:02;16.70;99.90
41447;DHT22;27185;52.040;4.490;2022-08-21T04:29:48;16.70;99.90
41447;DHT22;27185;52.040;4.490;2022-08-21T04:32:34;16.70;99.90
41447;DHT22;27185;52.040;4.490;2022-08-21T04:35:22;16.70;99.90
41447;DHT22;27185;52.040;4.490;2022-08-21T04:38:08;16.70;99.90
41447;DHT22;27185;52.040;4.490;2022-08-21T04:40:53;16.70;99.90
41447;DHT22;27185;52.040;4.490;2022-08-21T04:43:39;16.70;99.90
41447;DHT22;27185;52.040;4.490;2022-08-21T04:46:25;16.70;99.90
41447;DHT22;27185;52.040;4.490;2022-08-21T04:49:10;16.70;99.90
41447;DHT22;27185;52.040;4.490;2022-08-21T04:51:56;16.80;99.90
41447;DHT22;27185;52.040;4.490;2022-08-21T04:54:43;16.80;99.90
41447;DHT22;27185;52.040;4.490;2022-08-21T04:57:30;16.90;99.90
41447;DHT22;27185;52.040;4.490;2022-08-21T05:00:17;16.90;99.90
41447;DHT22;27185;52.040;4.490;2022-08-21T05:03:05;17.00;99.90
41447;DHT22;27185;52.040;4.490;2022-08-21T05:05:51;17.00;99.90
41447;DHT22;27185;52.040;4.490;2022-08-21T05:08:38;17.10;99.90
41447;DHT22;27185;52.040;4.490;2022-08-21T05:11:25;17.10;99.90
41447;DHT22;27185;52.040;4.490;2022-08-21T05:14:11;17.20;99.90
41447;DHT22;27185;52.040;4.490;2022-08-21T05:16:57;17.30;99.90
41447;DHT22;27185;52.040;4.490;2022-08-21T05:19:44;17.30;99.90
41447;DHT22;27185;52.040;4.490;2022-08-21T05:22:29;17.30;99.90
41447;DHT22;27185;52.040;4.490;2022-08-21T05:25:16;17.40;99.90
41447;DHT22;27185;52.040;4.490;2022-08-21T05:28:02;17.40;99.90
41447;DHT22;27185;52.040;4.490;2022-08-21T05:30:47;17.50;99.90
41447;DHT22;27185;52.040;4.490;2022-08-21T05:33:33;17.50;99.90
41447;DHT22;27185;52.040;4.490;2022-08-21T05:36:19;17.60;99.90
41447;DHT22;27185;52.040;4.490;2022-08-21T05:39:04;17.60;99.90
41447;DHT22;27185;52.040;4.490;2022-08-21T05:41:50;17.70;99.90
41447;DHT22;27185;52.040;4.490;2022-08-21T05:44:35;17.80;99.90
41447;DHT22;27185;52.040;4.490;2022-08-21T05:47:21;17.80;99.90
41447;DHT22;27185;52.040;4.490;2022-08-21T05:50:07;17.90;99.90
41447;DHT22;27185;52.040;4.490;2022-08-21T05:52:52;17.90;99.90
41447;DHT22;27185;52.040;4.490;2022-08-21T05:55:39;18.00;99.90
41447;DHT22;27185;52.040;4.490;2022-08-21T05:58:25;18.00;99.90
41447;DHT22;27185;52.040;4.490;2022-08-21T06:01:10;18.10;99.90
41447;DHT22;27185;52.040;4.490;2022-08-21T06:03:56;18.10;99.90
41447;DHT22;27185;52.040;4.490;2022-08-21T06:06:42;18.20;99.90
41447;DHT22;27185;52.040;4.490;2022-08-21T06:09:27;18.30;99.90
41447;DHT22;27185;52.040;4.490;2022-08-21T06:12:13;18.30;99.90
41447;DHT22;27185;52.040;4.490;2022-08-21T06:14:59;18.40;99.90
41447;DHT22;27185;52.040;4.490;2022-08-21T06:17:44;18.50;99.90
41447;DHT22;27185;52.040;4.490;2022-08-21T06:20:30;18.60;99.90
41447;DHT22;27185;52.040;4.490;2022-08-21T06:23:16;18.70;99.90
41447;DHT22;27185;52.040;4.490;2022-08-21T06:26:03;18.70;99.90
41447;DHT22;27185;52.040;4.490;2022-08-21T06:28:50;18.80;99.90
41447;DHT22;27185;52.040;4.490;2022-08-21T06:31:35;18.90;99.90
41447;DHT22;27185;52.040;4.490;2022-08-21T06:34:21;19.00;99.90
41447;DHT22;27185;52.040;4.490;2022-08-21T06:37:07;19.10;99.90
41447;DHT22;27185;52.040;4.490;2022-08-21T06:39:53;19.10;99.90
41447;DHT22;27185;52.040;4.490;2022-08-21T06:42:39;19.20;99.90
41447;DHT22;27185;52.040;4.490;2022-08-21T06:45:25;19.30;99.90
41447;DHT22;27185;52.040;4.490;2022-08-21T06:48:10;19.40;99.90
41447;DHT22;27185;52.040;4.490;2022-08-21T06:50:56;19.40;99.90
41447;DHT22;27185;52.040;4.490;2022-08-21T06:53:42;19.50;99.90
41447;DHT22;27185;52.040;4.490;2022-08-21T06:56:27;19.60;99.90
41447;DHT22;27185;52.040;4.490;2022-08-21T06:59:13;19.70;99.90
41447;DHT22;27185;52.040;4.490;2022-08-21T07:01:59;19.80;99.90
41447;DHT22;27185;52.040;4.490;2022-08-21T07:04:45;19.80;99.90
41447;DHT22;27185;52.040;4.490;2022-08-21T07:07:30;19.90;99.90
41447;DHT22;27185;52.040;4.490;2022-08-21T07:10:16;20.10;99.90
41447;DHT22;27185;52.040;4.490;2022-08-21T07:13:01;20.20;99.90
41447;DHT22;27185;52.040;4.490;2022-08-21T07:15:47;20.20;99.90
41447;DHT22;27185;52.040;4.490;2022-08-21T07:18:33;20.30;99.90
41447;DHT22;27185;52.040;4.490;2022-08-21T07:21:18;20.40;99.90
41447;DHT22;27185;52.040;4.490;2022-08-21T07:24:04;20.50;99.90
41447;DHT22;27185;52.040;4.490;2022-08-21T07:26:49;20.60;99.90
41447;DHT22;27185;52.040;4.490;2022-08-21T07:29:35;20.60;99.90
41447;DHT22;27185;52.040;4.490;2022-08-21T07:32:21;20.80;99.90
41447;DHT22;27185;52.040;4.490;2022-08-21T07:35:06;20.90;99.90
41447;DHT22;27185;52.040;4.490;2022-08-21T07:37:52;21.00;99.90
41447;DHT22;27185;52.040;4.490;2022-08-21T07:40:38;21.10;99.90
41447;DHT22;27185;52.040;4.490;2022-08-21T07:43:24;21.20;99.90
41447;DHT22;27185;52.040;4.490;2022-08-21T07:46:10;21.20;99.90
41447;DHT22;27185;52.040;4.490;2022-08-21T07:48:56;21.30;99.90
41447;DHT22;27185;52.040;4.490;2022-08-21T07:51:42;21.30;99.90
41447;DHT22;27185;52.040;4.490;2022-08-21T07:54:27;21.40;99.90
41447;DHT22;27185;52.040;4.490;2022-08-21T07:57:13;21.50;99.90
41447;DHT22;27185;52.040;4.490;2022-08-21T07:59:58;21.70;99.90
41447;DHT22;27185;52.040;4.490;2022-08-21T08:02:46;21.80;99.90
41447;DHT22;27185;52.040;4.490;2022-08-21T08:05:32;22.00;99.90
41447;DHT22;27185;52.040;4.490;2022-08-21T08:08:18;22.10;99.50
41447;DHT22;27185;52.040;4.490;2022-08-21T08:11:03;22.30;99.20
41447;DHT22;27185;52.040;4.490;2022-08-21T08:13:51;22.40;99.10
41447;DHT22;27185;52.040;4.490;2022-08-21T08:16:37;22.40;99.10
41447;DHT22;27185;52.040;4.490;2022-08-21T08:19:23;22.60;98.50
41447;DHT22;27185;52.040;4.490;2022-08-21T08:22:16;22.60;98.70
41447;DHT22;27185;52.040;4.490;2022-08-21T08:25:05;22.60;97.90
41447;DHT22;27185;52.040;4.490;2022-08-21T08:27:51;22.60;98.30
41447;DHT22;27185;52.040;4.490;2022-08-21T08:30:37;22.60;98.20
41447;DHT22;27185;52.040;4.490;2022-08-21T08:33:23;22.70;98.30
41447;DHT22;27185;52.040;4.490;2022-08-21T08:36:14;22.80;98.00
41447;DHT22;27185;52.040;4.490;2022-08-21T08:39:03;22.90;97.70
41447;DHT22;27185;52.040;4.490;2022-08-21T08:41:52;23.00;97.30
41447;DHT22;27185;52.040;4.490;2022-08-21T08:44:45;23.10;97.40
41447;DHT22;27185;52.040;4.490;2022-08-21T08:47:34;23.20;96.90
41447;DHT22;27185;52.040;4.490;2022-08-21T08:50:47;23.40;96.60
41447;DHT22;27185;52.040;4.490;2022-08-21T08:53:42;23.50;95.50
41447;DHT22;27185;52.040;4.490;2022-08-21T08:56:32;23.70;96.00
41447;DHT22;27185;52.040;4.490;2022-08-21T08:59:22;23.80;95.70
41447;DHT22;27185;52.040;4.490;2022-08-21T09:02:12;24.00;95.60
41447;DHT22;27185;52.040;4.490;2022-08-21T09:04:59;24.10;94.90
41447;DHT22;27185;52.040;4.490;2022-08-21T09:07:55;24.10;94.80
41447;DHT22;27185;52.040;4.490;2022-08-21T09:17:58;24.00;92.90
41447;DHT22;27185;52.040;4.490;2022-08-21T09:27:13;23.80;93.20
41447;DHT22;27185;52.040;4.490;2022-08-21T09:29:59;23.70;93.30
41447;DHT22;27185;52.040;4.490;2022-08-21T09:32:45;23.60;94.30
41447;DHT22;27185;52.040;4.490;2022-08-21T09:35:31;23.60;94.20
41447;DHT22;27185;52.040;4.490;2022-08-21T09:41:14;23.60;93.70
41447;DHT22;27185;52.040;4.490;2022-08-21T09:43:59;23.60;94.40
41447;DHT22;27185;52.040;4.490;2022-08-21T09:46:51;23.60;94.20
41447;DHT22;27185;52.040;4.490;2022-08-21T09:49:40;23.80;93.40
41447;DHT22;27185;52.040;4.490;2022-08-21T09:52:26;23.90;93.70
41447;DHT22;27185;52.040;4.490;2022-08-21T09:55:28;24.00;93.50
41447;DHT22;27185;52.040;4.490;2022-08-21T09:58:35;24.10;92.60
41447;DHT22;27185;52.040;4.490;2022-08-21T10:01:25;24.10;93.00
41447;DHT22;27185;52.040;4.490;2022-08-21T10:04:11;24.10;92.30
41447;DHT22;27185;52.040;4.490;2022-08-21T10:07:13;24.10;93.00
41447;DHT22;27185;52.040;4.490;2022-08-21T10:10:07;24.10;92.00
41447;DHT22;27185;52.040;4.490;2022-08-21T10:25:19;25.80;89.90
41447;DHT22;27185;52.040;4.490;2022-08-21T10:28:23;26.10;89.60
41447;DHT22;27185;52.040;4.490;2022-08-21T10:31:25;26.30;86.50
41447;DHT22;27185;52.040;4.490;2022-08-21T10:34:49;26.40;86.40
41447;DHT22;27185;52.040;4.490;2022-08-21T10:43:59;27.00;88.60
41447;DHT22;27185;52.040;4.490;2022-08-21T10:47:12;27.30;85.20
41447;DHT22;27185;52.040;4.490;2022-08-21T10:53:29;27.20;84.20
41447;DHT22;27185;52.040;4.490;2022-08-21T10:56:22;27.20;84.30
41447;DHT22;27185;52.040;4.490;2022-08-21T11:02:24;26.90;84.20
41447;DHT22;27185;52.040;4.490;2022-08-21T11:05:15;26.90;83.40
41447;DHT22;27185;52.040;4.490;2022-08-21T11:08:09;27.10;87.40
41447;DHT22;27185;52.040;4.490;2022-08-21T11:11:06;27.20;84.70
41447;DHT22;27185;52.040;4.490;2022-08-21T11:13:58;27.30;83.30
41447;DHT22;27185;52.040;4.490;2022-08-21T11:16:49;27.30;85.10
41447;DHT22;27185;52.040;4.490;2022-08-21T11:19:48;27.30;84.00
41447;DHT22;27185;52.040;4.490;2022-08-21T11:25:33;27.60;80.80
41447;DHT22;27185;52.040;4.490;2022-08-21T11:28:31;27.80;78.40
41447;DHT22;27185;52.040;4.490;2022-08-21T11:37:55;28.40;76.80
41447;DHT22;27185;52.040;4.490;2022-08-21T11:44:33;28.80;72.50
41447;DHT22;27185;52.040;4.490;2022-08-21T11:47:33;29.00;72.50
41447;DHT22;27185;52.040;4.490;2022-08-21T11:50:30;28.90;74.40
41447;DHT22;27185;52.040;4.490;2022-08-21T11:53:42;28.90;73.60
41447;DHT22;27185;52.040;4.490;2022-08-21T11:56:40;29.00;71.60
41447;DHT22;27185;52.040;4.490;2022-08-21T11:59:39;29.00;73.00
41447;DHT22;27185;52.040;4.490;2022-08-21T12:02:33;28.90;70.10
41447;DHT22;27185;52.040;4.490;2022-08-21T12:05:30;29.00;70.50
41447;DHT22;27185;52.040;4.490;2022-08-21T12:08:32;28.90;68.30
41447;DHT22;27185;52.040;4.490;2022-08-21T12:17:05;29.10;68.70
41447;DHT22;27185;52.040;4.490;2022-08-21T12:19:59;29.20;66.60
41447;DHT22;27185;52.040;4.490;2022-08-21T12:22:54;29.20;66.20
41447;DHT22;27185;52.040;4.490;2022-08-21T12:25:45;29.20;68.10
41447;DHT22;27185;52.040;4.490;2022-08-21T12:28:31;29.20;66.70
41447;DHT22;27185;52.040;4.490;2022-08-21T12:31:19;29.20;68.30
41447;DHT22;27185;52.040;4.490;2022-08-21T12:34:10;29.20;69.30
41447;DHT22;27185;52.040;4.490;2022-08-21T12:37:02;29.20;68.20
41447;DHT22;27185;52.040;4.490;2022-08-21T12:39:50;29.00;67.10
41447;DHT22;27185;52.040;4.490;2022-08-21T12:42:43;28.80;68.70
41447;DHT22;27185;52.040;4.490;2022-08-21T12:45:33;28.60;69.00
41447;DHT22;27185;52.040;4.490;2022-08-21T12:48:28;28.40;68.40
41447;DHT22;27185;52.040;4.490;2022-08-21T12:51:17;28.30;69.30
41447;DHT22;27185;52.040;4.490;2022-08-21T12:54:03;28.30;69.40
41447;DHT22;27185;52.040;4.490;2022-08-21T12:56:57;28.50;70.40
41447;DHT22;27185;52.040;4.490;2022-08-21T12:59:43;28.60;67.80
41447;DHT22;27185;52.040;4.490;2022-08-21T13:02:35;28.70;69.50
41447;DHT22;27185;52.040;4.490;2022-08-21T13:05:33;28.80;66.60
41447;DHT22;27185;52.040;4.490;2022-08-21T13:08:20;28.80;64.80
41447;DHT22;27185;52.040;4.490;2022-08-21T13:11:06;28.90;66.40
41447;DHT22;27185;52.040;4.490;2022-08-21T13:13:53;29.10;67.80
41447;DHT22;27185;52.040;4.490;2022-08-21T13:16:39;29.20;66.50
41447;DHT22;27185;52.040;4.490;2022-08-21T13:19:26;29.40;66.90
41447;DHT22;27185;52.040;4.490;2022-08-21T13:22:13;29.50;67.70
41447;DHT22;27185;52.040;4.490;2022-08-21T13:24:59;29.70;66.00
41447;DHT22;27185;52.040;4.490;2022-08-21T13:28:00;29.80;65.20
41447;DHT22;27185;52.040;4.490;2022-08-21T13:30:54;29.90;62.80
41447;DHT22;27185;52.040;4.490;2022-08-21T13:33:41;30.00;62.70
41447;DHT22;27185;52.040;4.490;2022-08-21T13:36:32;30.00;65.60
41447;DHT22;27185;52.040;4.490;2022-08-21T13:39:20;29.80;60.50
41447;DHT22;27185;52.040;4.490;2022-08-21T13:42:11;29.70;62.00
41447;DHT22;27185;52.040;4.490;2022-08-21T13:44:57;29.60;64.30
41447;DHT22;27185;52.040;4.490;2022-08-21T13:47:45;29.40;66.10
41447;DHT22;27185;52.040;4.490;2022-08-21T13:50:34;29.10;66.60
41447;DHT22;27185;52.040;4.490;2022-08-21T13:56:08;28.40;67.50
41447;DHT22;27185;52.040;4.490;2022-08-21T13:58:56;28.00;68.60
41447;DHT22;27185;52.040;4.490;2022-08-21T14:01:59;27.60;69.10
41447;DHT22;27185;52.040;4.490;2022-08-21T14:05:01;27.30;69.50
41447;DHT22;27185;52.040;4.490;2022-08-21T14:07:50;27.10;70.10
41447;DHT22;27185;52.040;4.490;2022-08-21T14:10:43;26.90;71.50
41447;DHT22;27185;52.040;4.490;2022-08-21T14:13:33;26.80;72.00
41447;DHT22;27185;52.040;4.490;2022-08-21T14:16:25;26.70;72.90
41447;DHT22;27185;52.040;4.490;2022-08-21T14:19:20;26.50;73.40
41447;DHT22;27185;52.040;4.490;2022-08-21T14:31:20;26.30;75.60
41447;DHT22;27185;52.040;4.490;2022-08-21T14:34:06;26.30;75.20
41447;DHT22;27185;52.040;4.490;2022-08-21T14:36:52;26.20;76.10
41447;DHT22;27185;52.040;4.490;2022-08-21T14:39:38;26.20;76.30
41447;DHT22;27185;52.040;4.490;2022-08-21T14:42:24;26.10;76.50
41447;DHT22;27185;52.040;4.490;2022-08-21T14:45:15;26.00;76.90
41447;DHT22;27185;52.040;4.490;2022-08-21T14:48:01;25.90;76.90
41447;DHT22;27185;52.040;4.490;2022-08-21T14:50:47;25.80;77.60
41447;DHT22;27185;52.040;4.490;2022-08-21T14:53:33;25.70;77.80
41447;DHT22;27185;52.040;4.490;2022-08-21T14:56:19;25.70;78.10
41447;DHT22;27185;52.040;4.490;2022-08-21T14:59:07;25.60;78.40
41447;DHT22;27185;52.040;4.490;2022-08-21T15:01:53;25.60;78.60
41447;DHT22;27185;52.040;4.490;2022-08-21T15:04:38;25.50;79.40
41447;DHT22;27185;52.040;4.490;2022-08-21T15:07:24;25.50;79.90
41447;DHT22;27185;52.040;4.490;2022-08-21T15:10:10;25.60;79.70
41447;DHT22;27185;52.040;4.490;2022-08-21T15:12:56;25.70;79.20
41447;DHT22;27185;52.040;4.490;2022-08-21T15:15:44;25.80;79.50
41447;DHT22;27185;52.040;4.490;2022-08-21T15:18:31;25.90;78.40
41447;DHT22;27185;52.040;4.490;2022-08-21T15:21:16;26.10;78.90
41447;DHT22;27185;52.040;4.490;2022-08-21T15:24:02;26.20;78.90
41447;DHT22;27185;52.040;4.490;2022-08-21T15:26:49;26.30;78.70
41447;DHT22;27185;52.040;4.490;2022-08-21T15:29:34;26.30;78.50
41447;DHT22;27185;52.040;4.490;2022-08-21T15:32:26;26.40;78.00
41447;DHT22;27185;52.040;4.490;2022-08-21T15:35:13;26.50;77.60
41447;DHT22;27185;52.040;4.490;2022-08-21T15:37:59;26.60;77.80
41447;DHT22;27185;52.040;4.490;2022-08-21T15:40:44;26.70;77.70
41447;DHT22;27185;52.040;4.490;2022-08-21T15:43:40;27.00;77.60
41447;DHT22;27185;52.040;4.490;2022-08-21T15:46:27;27.20;77.10
41447;DHT22;27185;52.040;4.490;2022-08-21T15:49:12;27.60;77.30
41447;DHT22;27185;52.040;4.490;2022-08-21T15:51:58;27.80;76.50
41447;DHT22;27185;52.040;4.490;2022-08-21T15:54:44;28.10;76.50
41447;DHT22;27185;52.040;4.490;2022-08-21T15:57:29;28.30;76.10
41447;DHT22;27185;52.040;4.490;2022-08-21T16:00:19;28.50;75.70
41447;DHT22;27185;52.040;4.490;2022-08-21T16:03:06;28.60;74.60
41447;DHT22;27185;52.040;4.490;2022-08-21T16:05:55;28.60;75.00
41447;DHT22;27185;52.040;4.490;2022-08-21T16:08:42;28.70;75.10
41447;DHT22;27185;52.040;4.490;2022-08-21T16:11:27;28.70;74.70
41447;DHT22;27185;52.040;4.490;2022-08-21T16:14:15;28.70;72.90
41447;DHT22;27185;52.040;4.490;2022-08-21T16:17:02;28.60;73.00
41447;DHT22;27185;52.040;4.490;2022-08-21T16:19:48;28.40;73.40
41447;DHT22;27185;52.040;4.490;2022-08-21T16:22:34;28.20;73.50
41447;DHT22;27185;52.040;4.490;2022-08-21T16:25:21;27.90;74.20
41447;DHT22;27185;52.040;4.490;2022-08-21T16:28:09;27.70;74.50
41447;DHT22;27185;52.040;4.490;2022-08-21T16:30:55;27.50;74.60
41447;DHT22;27185;52.040;4.490;2022-08-21T16:33:44;27.20;75.20
41447;DHT22;27185;52.040;4.490;2022-08-21T16:36:30;27.00;75.80
41447;DHT22;27185;52.040;4.490;2022-08-21T16:39:16;26.80;75.90
41447;DHT22;27185;52.040;4.490;2022-08-21T16:42:01;26.60;76.20
41447;DHT22;27185;52.040;4.490;2022-08-21T16:44:47;26.40;76.60
41447;DHT22;27185;52.040;4.490;2022-08-21T16:47:33;26.30;77.10
41447;DHT22;27185;52.040;4.490;2022-08-21T16:50:21;26.10;77.60
41447;DHT22;27185;52.040;4.490;2022-08-21T16:53:08;26.00;77.80
41447;DHT22;27185;52.040;4.490;2022-08-21T16:55:54;25.90;77.90
41447;DHT22;27185;52.040;4.490;2022-08-21T16:58:44;25.80;78.00
41447;DHT22;27185;52.040;4.490;2022-08-21T17:01:32;25.60;78.20
41447;DHT22;27185;52.040;4.490;2022-08-21T17:04:18;25.50;79.40
41447;DHT22;27185;52.040;4.490;2022-08-21T17:07:05;25.40;78.50
41447;DHT22;27185;52.040;4.490;2022-08-21T17:09:50;25.30;79.10
41447;DHT22;27185;52.040;4.490;2022-08-21T17:12:36;25.20;79.60
41447;DHT22;27185;52.040;4.490;2022-08-21T17:15:33;25.10;79.80
41447;DHT22;27185;52.040;4.490;2022-08-21T17:18:21;25.00;79.70
41447;DHT22;27185;52.040;4.490;2022-08-21T17:21:07;24.90;80.20
41447;DHT22;27185;52.040;4.490;2022-08-21T17:23:52;24.90;80.40
41447;DHT22;27185;52.040;4.490;2022-08-21T17:26:38;24.80;80.50
41447;DHT22;27185;52.040;4.490;2022-08-21T17:29:27;24.70;80.70
41447;DHT22;27185;52.040;4.490;2022-08-21T17:32:14;24.60;80.80
41447;DHT22;27185;52.040;4.490;2022-08-21T17:35:00;24.50;81.00
41447;DHT22;27185;52.040;4.490;2022-08-21T17:37:45;24.40;81.30
41447;DHT22;27185;52.040;4.490;2022-08-21T17:40:31;24.30;81.50
41447;DHT22;27185;52.040;4.490;2022-08-21T17:43:17;24.30;81.60
41447;DHT22;27185;52.040;4.490;2022-08-21T17:46:03;24.20;81.80
41447;DHT22;27185;52.040;4.490;2022-08-21T17:48:49;24.20;82.00
41447;DHT22;27185;52.040;4.490;2022-08-21T17:51:35;24.10;82.00
41447;DHT22;27185;52.040;4.490;2022-08-21T17:54:21;24.10;82.20
41447;DHT22;27185;52.040;4.490;2022-08-21T17:57:07;24.00;82.30
41447;DHT22;27185;52.040;4.490;2022-08-21T17:59:55;24.00;82.50
41447;DHT22;27185;52.040;4.490;2022-08-21T18:02:42;23.90;82.50
41447;DHT22;27185;52.040;4.490;2022-08-21T18:05:28;23.90;82.50
41447;DHT22;27185;52.040;4.490;2022-08-21T18:08:14;23.90;82.20
41447;DHT22;27185;52.040;4.490;2022-08-21T18:11:00;23.80;82.80
41447;DHT22;27185;52.040;4.490;2022-08-21T18:13:46;23.80;83.00
41447;DHT22;27185;52.040;4.490;2022-08-21T18:16:33;23.70;83.10
41447;DHT22;27185;52.040;4.490;2022-08-21T18:19:19;23.70;83.20
41447;DHT22;27185;52.040;4.490;2022-08-21T18:22:05;23.60;83.30
41447;DHT22;27185;52.040;4.490;2022-08-21T18:24:53;23.60;83.50
41447;DHT22;27185;52.040;4.490;2022-08-21T18:27:40;23.50;83.60
41447;DHT22;27185;52.040;4.490;2022-08-21T18:30:27;23.50;83.80
41447;DHT22;27185;52.040;4.490;2022-08-21T18:33:13;23.40;84.00
41447;DHT22;27185;52.040;4.490;2022-08-21T18:35:59;23.40;84.10
41447;DHT22;27185;52.040;4.490;2022-08-21T18:38:44;23.30;84.20
41447;DHT22;27185;52.040;4.490;2022-08-21T18:41:31;23.30;84.40
41447;DHT22;27185;52.040;4.490;2022-08-21T18:44:18;23.20;84.60
41447;DHT22;27185;52.040;4.490;2022-08-21T18:47:10;23.20;84.80
41447;DHT22;27185;52.040;4.490;2022-08-21T18:49:56;23.20;84.90
41447;DHT22;27185;52.040;4.490;2022-08-21T18:52:42;23.10;85.00